Skiathos, Hellas

12:17:EEST den 23. Oktober 2014 (GMT +0300)
Skopelos Greece | Change Station
CLOSE
Current Station
Personlig værstasjon
Location: Ελλάδα,
Høyde over havet: 259 ft
Nearby Weather Stations

H.o.h 259 ft 39.13 °N, 23.72 °E | Updated 8 seconds ago

Mostly Cloudy
For det meste skyet
69.4 °F
Feels Like 69.4 °F
N
0.6
Vind Variabel Vind from Nord
Gusts 4.5 mph

I dag
High -- | Low -- °F
--% Chance of Precip.
I går
High -- | Low -- °F
Precip. -- tommer
7:43 AM 6:36 PM
Minkende sigd, 0% visible
Lufttrykk 29.50 tommer
Sikt 6.2 eng. mil
Skyet Sporadisk skyet 3500 ft
For det meste skyet 8000 ft
Duggpunkt 59 °F
Fuktighet 70%
Regn 0.00 tommer
Snødybde Not available.
UV 1.0 av 12
Pollen Not available.
Luftkvalitet Not available.
Flu Activity Not available.
METAR LGBL 230850Z 25020KT 9999 SCT035 BKN080 20/05 Q0999

More Conditions Fewer Conditions

Lufttrykk 29.50 tommer
Sikt 6.2 eng. mil
Skyet Sporadisk skyet 3500 ft
For det meste skyet 8000 ft
Duggpunkt 59 °F
Fuktighet 70%
Regn 0.00 tommer
Snødybde Not available.
UV 1.0 av 12
Pollen Not available.
Luftkvalitet Not available.
Flu Activity Not available.
METAR LGBL 230850Z 25020KT 9999 SCT035 BKN080 20/05 Q0999

More Conditions Fewer Conditions

10-Day Weather Forecast

Almanac

Astronomi

Oct. 23, 2014 Oppgang Nedgang
Virkelig tid 07:43 EEST 18:36 EEST
Tussmørke 07:16 EEST 19:03 EEST
Nautisk skumring 06:45 EEST 19:34 EEST
Astronomisk skumring 06:14 EEST 20:05 EEST
Månen 07:05 EEST 18:26 EEST
Lengde av synlig lys 11h 47m
Dagens lengde
10h 52m
Tomorrow will be 2m 23s shorter.
Minkende sigd, 0% of the Moon is Illuminated
I dag
Minkende sigd
Oct 23
Ny
Oct 30
Første kvarter
Nov 6
Fullmåne
Nov 14
Siste kvarter

Gårsdagens min/max

Country Highs Country Lows

Community

WunderPhotos

Upload Photos

1,764,199 photos uploaded!

Nearby

Snødybde

Not available.

Earthquake Activity

By Distance Mag. Time & Date
No recent earthquake activity has been reported nearby.
Minimum magnitude displayed is 2.5.

Coastal Water Temperatures

Sted Temperatur
Ingen stasjoner raporterer

Nearby Weather Stations